Time;durP1;ratioP1;P1;durP2;ratioP2;P2;SDS_P1;SDS_P2;PMS_P1;PMS_P2;Temp;Humidity;BMP_temperature;BMP_pressure;BME280_temperature;BME280_humidity;BME280_pressure;Samples;Min_cycle;Max_cycle;Signal;HPM_P1;HPM_P2
2021/07/03 00:02:16;;;;;;;1.50;0.90;;;17.10;98.20;;;;;;5042649;28;20869;-76
2021/07/03 00:04:43;;;;;;;1.50;1.00;;;17.10;98.20;;;;;;5036697;28;20607;-76
2021/07/03 00:07:11;;;;;;;1.50;1.00;;;17.10;98.20;;;;;;5030039;28;20475;-75
2021/07/03 00:09:38;;;;;;;1.53;1.00;;;17.10;98.20;;;;;;5033706;28;20462;-77
2021/07/03 00:12:09;;;;;;;1.53;1.00;;;17.10;98.20;;;;;;5039144;28;20545;-77
2021/07/03 00:14:38;;;;;;;1.50;1.00;;;17.00;98.20;;;;;;5037851;28;20892;-75
2021/07/03 00:17:05;;;;;;;1.50;1.00;;;17.00;98.20;;;;;;5038210;28;20489;-77
2021/07/03 00:19:33;;;;;;;1.50;1.00;;;17.00;98.20;;;;;;5035765;28;20465;-77
2021/07/03 00:22:00;;;;;;;1.50;1.00;;;17.00;98.20;;;;;;5035357;28;20477;-77
2021/07/03 00:24:27;;;;;;;1.50;1.00;;;17.00;98.20;;;;;;5044755;28;20463;-76
2021/07/03 00:26:54;;;;;;;1.50;0.97;;;17.00;98.20;;;;;;5036591;28;20507;-75
2021/07/03 00:29:22;;;;;;;1.50;0.90;;;16.90;98.20;;;;;;5040949;28;20466;-76
2021/07/03 00:31:49;;;;;;;1.53;1.00;;;16.90;98.20;;;;;;5033256;28;20497;-75
2021/07/03 00:34:16;;;;;;;1.50;1.00;;;16.90;98.20;;;;;;5044006;28;20467;-75
2021/07/03 00:36:43;;;;;;;1.50;1.00;;;16.90;98.20;;;;;;5032378;28;20570;-75
2021/07/03 00:39:10;;;;;;;1.50;1.00;;;16.90;98.20;;;;;;5044696;28;20468;-76
2021/07/03 00:41:37;;;;;;;1.60;1.20;;;16.90;98.20;;;;;;5029332;28;20538;-77
2021/07/03 00:44:04;;;;;;;1.50;1.00;;;16.80;98.20;;;;;;5046606;28;20482;-76
2021/07/03 00:46:32;;;;;;;1.50;1.00;;;16.80;98.20;;;;;;5027288;28;20517;-77
2021/07/03 00:48:59;;;;;;;1.50;1.00;;;16.80;98.20;;;;;;5046834;28;20550;-76
2021/07/03 00:51:26;;;;;;;1.50;1.00;;;16.80;98.20;;;;;;5030576;28;20497;-76
2021/07/03 00:53:54;;;;;;;1.50;1.00;;;16.80;98.20;;;;;;5044801;28;20564;-76
2021/07/03 00:56:21;;;;;;;1.50;0.93;;;16.70;98.20;;;;;;5024273;28;20488;-76
2021/07/03 00:58:47;;;;;;;1.50;0.90;;;16.70;98.20;;;;;;5050883;28;20474;-77
2021/07/03 01:01:14;;;;;;;1.50;1.00;;;16.70;98.20;;;;;;5024839;28;20477;-75
2021/07/03 01:03:42;;;;;;;1.50;1.00;;;16.70;98.20;;;;;;5036538;28;20958;-77
2021/07/03 01:06:09;;;;;;;1.50;0.90;;;16.60;98.20;;;;;;5014533;28;20485;-76
2021/07/03 01:08:36;;;;;;;1.50;1.00;;;16.60;98.20;;;;;;5038054;28;20970;-74
2021/07/03 01:11:03;;;;;;;1.50;1.00;;;16.60;98.20;;;;;;5018303;28;21020;-75
2021/07/03 01:13:31;;;;;;;1.50;1.00;;;16.60;98.20;;;;;;5055458;28;20459;-77
2021/07/03 01:15:58;;;;;;;1.50;1.00;;;16.60;98.20;;;;;;5021023;28;21001;-76
2021/07/03 01:18:25;;;;;;;1.50;1.00;;;16.50;98.20;;;;;;5052355;28;20841;-76
2021/07/03 01:20:55;;;;;;;1.50;0.97;;;16.50;98.20;;;;;;5019396;28;20489;-76
2021/07/03 01:23:24;;;;;;;1.50;0.90;;;16.50;98.20;;;;;;5057585;28;20459;-76
2021/07/03 01:25:57;;;;;;;1.50;1.00;;;16.50;98.20;;;;;;5018867;28;20480;-74
2021/07/03 01:28:24;;;;;;;1.50;1.00;;;16.50;98.20;;;;;;5056613;28;20459;-76
2021/07/03 01:30:52;;;;;;;1.50;1.00;;;16.40;98.20;;;;;;5018934;28;20893;-74
2021/07/03 01:33:19;;;;;;;1.50;1.00;;;16.40;98.20;;;;;;5058938;28;20498;-75
2021/07/03 01:35:46;;;;;;;1.50;1.00;;;16.40;98.20;;;;;;5025664;28;20761;-76
2021/07/03 01:38:18;;;;;;;1.50;1.00;;;16.40;98.20;;;;;;5060476;28;20471;-77
2021/07/03 01:40:46;;;;;;;1.53;1.00;;;16.40;98.20;;;;;;5024829;28;20879;-76
2021/07/03 01:43:19;;;;;;;1.50;1.00;;;16.30;98.20;;;;;;5056569;28;20471;-76
2021/07/03 01:45:46;;;;;;;1.53;1.00;;;16.30;98.20;;;;;;5024585;28;20670;-76
2021/07/03 01:48:14;;;;;;;1.50;1.00;;;16.30;98.20;;;;;;5059979;28;20467;-76
2021/07/03 01:50:41;;;;;;;1.50;1.00;;;16.30;98.20;;;;;;5029408;28;20487;-76
2021/07/03 01:53:08;;;;;;;1.50;1.00;;;16.30;98.20;;;;;;5050967;28;20569;-76
2021/07/03 01:55:35;;;;;;;1.53;1.00;;;16.30;98.20;;;;;;5030957;28;20489;-76
2021/07/03 01:58:03;;;;;;;1.50;1.00;;;16.30;98.20;;;;;;5053748;28;20488;-76
2021/07/03 02:00:30;;;;;;;1.50;1.00;;;16.20;98.20;;;;;;5021745;28;21026;-76
2021/07/03 02:02:57;;;;;;;1.50;0.93;;;16.20;98.20;;;;;;5048302;28;20852;-76
2021/07/03 02:05:24;;;;;;;1.50;1.00;;;16.20;98.20;;;;;;5029983;28;20966;-76
2021/07/03 02:07:51;;;;;;;1.50;1.00;;;16.20;98.20;;;;;;5051642;28;20505;-76
2021/07/03 02:10:18;;;;;;;1.50;1.10;;;16.20;98.20;;;;;;5029554;28;20467;-77
2021/07/03 02:12:45;;;;;;;1.50;1.00;;;16.20;98.20;;;;;;5048895;28;20528;-74
2021/07/03 02:15:14;;;;;;;1.50;1.00;;;16.20;98.20;;;;;;5029596;28;20455;-74
2021/07/03 02:17:41;;;;;;;1.50;1.00;;;16.20;98.20;;;;;;5049547;28;20485;-75
2021/07/03 02:20:09;;;;;;;1.50;1.00;;;16.10;98.20;;;;;;5030566;28;20459;-74
2021/07/03 02:22:36;;;;;;;1.60;1.10;;;16.10;98.20;;;;;;5046780;28;20522;-74
2021/07/03 02:25:06;;;;;;;1.50;1.00;;;16.10;98.20;;;;;;5032203;28;20455;-75
2021/07/03 02:27:33;;;;;;;1.50;1.00;;;16.10;98.20;;;;;;5035016;28;20637;-75
2021/07/03 02:30:01;;;;;;;1.60;1.00;;;16.10;98.20;;;;;;5030963;28;20801;-74
2021/07/03 02:32:30;;;;;;;1.50;1.00;;;16.10;98.20;;;;;;5046308;28;20509;-75
2021/07/03 02:34:57;;;;;;;1.50;1.00;;;16.10;98.20;;;;;;5033761;28;20548;-74
2021/07/03 02:37:24;;;;;;;1.53;1.00;;;16.10;98.20;;;;;;5030257;28;20864;-74
2021/07/03 02:39:51;;;;;;;1.53;1.00;;;16.10;98.20;;;;;;5033252;28;20837;-74
2021/07/03 02:42:18;;;;;;;1.57;1.00;;;16.10;98.20;;;;;;5043451;28;20477;-74
2021/07/03 02:44:45;;;;;;;1.50;1.10;;;16.10;98.20;;;;;;5037933;28;20685;-74
2021/07/03 02:47:12;;;;;;;1.50;1.00;;;16.00;98.20;;;;;;5043981;28;20722;-74
2021/07/03 02:49:41;;;;;;;1.50;1.00;;;16.00;98.20;;;;;;5038987;28;20471;-74
2021/07/03 02:52:08;;;;;;;1.50;1.00;;;16.00;98.20;;;;;;5041806;28;20499;-76
2021/07/03 02:54:35;;;;;;;1.50;1.00;;;15.90;98.20;;;;;;5039417;28;20491;-75
2021/07/03 02:57:02;;;;;;;1.50;1.00;;;15.90;98.20;;;;;;5040541;28;20477;-74
2021/07/03 02:59:29;;;;;;;1.50;1.00;;;15.90;98.20;;;;;;5040481;28;20533;-74
2021/07/03 03:01:56;;;;;;;1.53;1.00;;;15.90;98.20;;;;;;5035541;28;20481;-74
2021/07/03 03:04:23;;;;;;;1.50;1.00;;;15.80;98.20;;;;;;5042989;28;20491;-74
2021/07/03 03:06:52;;;;;;;1.53;1.00;;;15.80;98.20;;;;;;5039213;28;20957;-74
2021/07/03 03:09:19;;;;;;;1.50;1.00;;;15.80;98.20;;;;;;5044479;28;20509;-74
2021/07/03 03:11:46;;;;;;;1.50;1.00;;;15.70;98.20;;;;;;5032317;28;20473;-75
2021/07/03 03:14:12;;;;;;;1.50;1.00;;;15.70;98.20;;;;;;5043765;28;20753;-75
2021/07/03 03:16:40;;;;;;;1.50;1.00;;;15.70;98.20;;;;;;5034081;28;20504;-74
2021/07/03 03:19:07;;;;;;;1.57;1.10;;;15.60;98.20;;;;;;5046936;28;20463;-75
2021/07/03 03:21:34;;;;;;;1.50;1.00;;;15.60;98.20;;;;;;5032859;28;20560;-74
2021/07/03 03:24:03;;;;;;;1.57;1.00;;;15.60;98.20;;;;;;5047243;28;20550;-74
2021/07/03 03:26:29;;;;;;;1.50;1.10;;;15.60;98.20;;;;;;5025265;28;20608;-75
2021/07/03 03:28:56;;;;;;;1.60;1.20;;;15.60;98.20;;;;;;5041640;28;20470;-75
2021/07/03 03:31:23;;;;;;;1.50;1.10;;;15.60;98.20;;;;;;5022825;28;20478;-74
2021/07/03 03:33:51;;;;;;;1.50;1.00;;;15.50;98.20;;;;;;5031065;28;20490;-74
2021/07/03 03:36:18;;;;;;;1.57;1.07;;;15.50;98.20;;;;;;5015619;28;20497;-74
2021/07/03 03:38:45;;;;;;;1.50;1.00;;;15.50;98.20;;;;;;5035631;28;20455;-74
2021/07/03 03:41:14;;;;;;;1.50;1.00;;;15.50;98.20;;;;;;5004037;28;20529;-75
2021/07/03 03:43:42;;;;;;;1.50;1.00;;;15.50;98.20;;;;;;5036494;28;20460;-74
2021/07/03 03:46:09;;;;;;;1.50;1.00;;;15.50;98.20;;;;;;5005087;28;20478;-74
2021/07/03 03:48:36;;;;;;;1.50;1.00;;;15.50;98.20;;;;;;5034214;28;20463;-76
2021/07/03 03:51:03;;;;;;;1.50;1.07;;;15.50;98.20;;;;;;5005400;28;20566;-77
2021/07/03 03:53:30;;;;;;;1.50;1.10;;;15.50;98.20;;;;;;5045650;28;20505;-74
2021/07/03 03:55:57;;;;;;;1.50;1.00;;;15.50;98.20;;;;;;5004014;28;20507;-74
2021/07/03 03:58:25;;;;;;;1.50;1.00;;;15.50;98.20;;;;;;5038909;28;20472;-74
2021/07/03 04:00:52;;;;;;;1.50;0.90;;;15.50;98.20;;;;;;5001079;28;20537;-77
2021/07/03 04:03:20;;;;;;;1.50;1.00;;;15.60;98.20;;;;;;5023592;28;21132;-75
2021/07/03 04:05:47;;;;;;;1.50;1.00;;;15.60;98.20;;;;;;5006171;28;20464;-75
2021/07/03 04:08:14;;;;;;;1.50;1.00;;;15.60;98.20;;;;;;5059294;28;20467;-75
2021/07/03 04:10:41;;;;;;;1.70;1.40;;;15.60;98.20;;;;;;5030989;28;20490;-75
2021/07/03 04:13:08;;;;;;;1.53;1.00;;;15.70;98.20;;;;;;5052556;28;20476;-75
2021/07/03 04:15:36;;;;;;;1.50;1.00;;;15.70;98.20;;;;;;5031967;28;20518;-73
2021/07/03 04:18:04;;;;;;;1.50;1.00;;;15.70;98.20;;;;;;5051982;28;20516;-74
2021/07/03 04:20:31;;;;;;;1.50;1.00;;;15.70;98.20;;;;;;5030578;28;20463;-75
2021/07/03 04:22:58;;;;;;;1.53;1.10;;;15.80;98.20;;;;;;5052271;28;20495;-76
2021/07/03 04:25:25;;;;;;;1.50;1.00;;;15.80;98.20;;;;;;5030132;28;20533;-75
2021/07/03 04:27:53;;;;;;;1.50;1.00;;;15.80;98.20;;;;;;5053064;28;21045;-76
2021/07/03 04:30:20;;;;;;;1.50;1.00;;;15.80;98.20;;;;;;5028108;28;20471;-74
2021/07/03 04:32:49;;;;;;;1.50;1.00;;;15.90;98.20;;;;;;5043838;28;20469;-77
2021/07/03 04:35:17;;;;;;;1.50;1.00;;;15.90;98.20;;;;;;5029229;28;20486;-76
2021/07/03 04:37:44;;;;;;;1.50;0.90;;;16.00;98.20;;;;;;5049566;28;20477;-75
2021/07/03 04:40:12;;;;;;;1.50;1.00;;;16.10;98.20;;;;;;5028382;28;20542;-74
2021/07/03 04:42:40;;;;;;;1.50;1.00;;;16.10;98.20;;;;;;5048872;28;20485;-73
2021/07/03 04:45:08;;;;;;;1.57;1.00;;;16.20;98.20;;;;;;5030784;28;20846;-75
2021/07/03 04:47:36;;;;;;;1.50;1.00;;;16.30;98.20;;;;;;5045015;28;20477;-74
2021/07/03 04:50:06;;;;;;;1.50;1.00;;;16.30;98.20;;;;;;5031511;28;20509;-75
2021/07/03 04:52:33;;;;;;;1.50;1.00;;;16.40;98.20;;;;;;5033561;28;20478;-74
2021/07/03 04:55:00;;;;;;;1.53;1.00;;;16.50;98.20;;;;;;5030880;28;20467;-74
2021/07/03 04:57:27;;;;;;;1.50;0.90;;;16.60;98.20;;;;;;5042419;28;20487;-74
2021/07/03 04:59:54;;;;;;;1.50;0.97;;;16.80;98.20;;;;;;5032692;28;20981;-75
2021/07/03 05:02:21;;;;;;;1.50;1.00;;;16.90;98.20;;;;;;5042854;28;20483;-75
2021/07/03 05:04:48;;;;;;;1.50;1.00;;;16.90;98.20;;;;;;5034617;28;20459;-74
2021/07/03 05:07:16;;;;;;;1.50;1.00;;;17.00;98.20;;;;;;5039551;28;20492;-74
2021/07/03 05:09:43;;;;;;;1.50;0.90;;;17.10;98.20;;;;;;5034659;28;20462;-74
2021/07/03 05:12:10;;;;;;;1.50;0.90;;;17.30;98.20;;;;;;5030986;28;20868;-74
2021/07/03 05:14:37;;;;;;;1.50;1.00;;;17.50;98.20;;;;;;5020258;28;20487;-76
2021/07/03 05:17:04;;;;;;;1.50;1.00;;;17.70;98.20;;;;;;5019557;28;20482;-75
2021/07/03 05:19:31;;;;;;;1.50;1.00;;;17.90;98.20;;;;;;5021418;28;20563;-76
2021/07/03 05:21:58;;;;;;;1.50;0.97;;;18.00;98.20;;;;;;5021232;28;20496;-75
2021/07/03 05:24:27;;;;;;;1.50;0.90;;;18.10;98.20;;;;;;5023965;28;20460;-75
2021/07/03 05:26:54;;;;;;;1.50;1.03;;;18.20;98.20;;;;;;5020927;28;20897;-75
2021/07/03 05:29:21;;;;;;;1.53;1.03;;;18.30;98.20;;;;;;5020987;28;20514;-75
2021/07/03 05:31:48;;;;;;;1.50;1.00;;;18.40;98.20;;;;;;5018191;28;20569;-75
2021/07/03 05:34:14;;;;;;;1.53;1.00;;;18.50;98.20;;;;;;5027229;28;20516;-75
2021/07/03 05:36:45;;;;;;;1.50;1.00;;;18.70;98.20;;;;;;5010481;28;20719;-75
2021/07/03 05:39:12;;;;;;;1.50;0.90;;;18.90;98.20;;;;;;5017710;28;20670;-75
2021/07/03 05:41:40;;;;;;;1.50;1.00;;;19.10;98.20;;;;;;5011318;28;20494;-76
2021/07/03 05:44:07;;;;;;;1.50;1.00;;;19.30;98.20;;;;;;5028050;28;20870;-77
2021/07/03 05:46:35;;;;;;;1.50;0.97;;;19.40;98.20;;;;;;5010877;28;20479;-76
2021/07/03 05:49:02;;;;;;;1.50;0.90;;;19.50;98.20;;;;;;5010819;28;20464;-75
2021/07/03 05:51:32;;;;;;;1.50;0.90;;;19.70;97.60;;;;;;5012552;28;20483;-77
2021/07/03 05:53:59;;;;;;;1.50;0.93;;;19.70;97.20;;;;;;5044198;28;20564;-76
2021/07/03 05:56:27;;;;;;;1.50;0.90;;;19.80;97.40;;;;;;5030555;28;20501;-76
2021/07/03 05:58:55;;;;;;;1.50;1.00;;;19.90;96.40;;;;;;5056376;28;20850;-77
2021/07/03 06:01:23;;;;;;;1.50;0.90;;;19.90;96.10;;;;;;5034142;28;20492;-76
2021/07/03 06:03:50;;;;;;;1.53;1.00;;;19.90;96.20;;;;;;5049382;28;20478;-76
2021/07/03 06:06:17;;;;;;;1.50;1.00;;;20.00;95.50;;;;;;5027166;28;20981;-77
2021/07/03 06:08:43;;;;;;;1.50;1.00;;;20.10;95.90;;;;;;5052850;28;20478;-76
2021/07/03 06:11:12;;;;;;;1.53;0.93;;;20.20;95.40;;;;;;5024868;28;20596;-76
2021/07/03 06:13:40;;;;;;;1.50;0.90;;;20.40;95.10;;;;;;5055485;28;21079;-76
2021/07/03 06:16:08;;;;;;;1.53;1.00;;;20.60;94.00;;;;;;5026519;28;20474;-76
2021/07/03 06:18:36;;;;;;;1.50;0.90;;;20.70;93.70;;;;;;5059603;28;21028;-76
2021/07/03 06:21:02;;;;;;;1.50;0.90;;;20.70;94.20;;;;;;5024725;28;20483;-77
2021/07/03 06:23:30;;;;;;;1.50;0.90;;;20.90;93.90;;;;;;5059431;28;20470;-77
2021/07/03 06:25:59;;;;;;;1.53;1.00;;;21.10;92.70;;;;;;5023409;28;20517;-80
2021/07/03 06:28:26;;;;;;;1.50;0.90;;;21.30;92.20;;;;;;5044478;28;20455;-80
2021/07/03 06:30:53;;;;;;;1.57;0.90;;;21.50;91.70;;;;;;5019224;28;21139;-77
2021/07/03 06:33:21;;;;;;;1.57;1.00;;;21.60;92.00;;;;;;5045975;28;20491;-80
2021/07/03 06:35:48;;;;;;;1.50;0.90;;;21.80;90.80;;;;;;5023585;28;20463;-78
2021/07/03 06:38:15;;;;;;;1.50;0.90;;;21.90;90.60;;;;;;5061463;28;20463;-79
2021/07/03 06:40:41;;;;;;;1.50;0.90;;;22.00;90.80;;;;;;5031769;28;20511;-79
2021/07/03 06:43:08;;;;;;;1.53;0.90;;;22.20;90.40;;;;;;5050231;28;20990;-79
2021/07/03 06:45:35;;;;;;;1.50;0.90;;;22.30;90.10;;;;;;5032294;28;20960;-81
2021/07/03 06:48:02;;;;;;;1.57;0.90;;;22.50;89.50;;;;;;5046897;28;20520;-80
2021/07/03 06:50:30;;;;;;;1.50;0.90;;;22.60;89.60;;;;;;5037172;28;21105;-80
2021/07/03 06:52:57;;;;;;;1.53;0.90;;;22.80;89.00;;;;;;5051785;28;20484;-79
2021/07/03 06:55:26;;;;;;;1.50;1.00;;;23.00;88.70;;;;;;5035311;28;20467;-78
2021/07/03 06:57:53;;;;;;;1.57;0.90;;;23.30;88.00;;;;;;5041813;28;20952;-81
2021/07/03 07:00:20;;;;;;;1.50;0.90;;;23.50;87.10;;;;;;5034186;28;20467;-79
2021/07/03 07:02:47;;;;;;;1.50;0.90;;;23.70;86.80;;;;;;5050690;28;21638;-82
2021/07/03 07:05:26;;;;;;;1.50;0.90;;;23.80;86.50;;;;;;5034497;28;20843;-80
2021/07/03 07:07:54;;;;;;;1.57;0.90;;;24.00;86.60;;;;;;5057816;28;20579;-81
2021/07/03 07:10:22;;;;;;;1.50;0.90;;;24.20;85.60;;;;;;5034216;28;20745;-82
2021/07/03 07:12:49;;;;;;;1.50;0.90;;;24.40;85.00;;;;;;5055994;28;20588;-82
2021/07/03 07:15:17;;;;;;;1.50;0.90;;;24.60;84.30;;;;;;5034039;28;20521;-84
2021/07/03 07:17:44;;;;;;;1.50;0.90;;;24.60;83.80;;;;;;5051008;28;20483;-80
2021/07/03 07:20:13;;;;;;;1.53;0.90;;;24.80;83.70;;;;;;5029363;28;20529;-84
2021/07/03 07:22:39;;;;;;;1.50;0.90;;;24.90;84.10;;;;;;5047072;28;20489;-80
2021/07/03 07:25:09;;;;;;;1.50;0.90;;;25.00;83.90;;;;;;5030853;28;20823;-79
2021/07/03 07:27:37;;;;;;;1.50;0.87;;;25.10;82.80;;;;;;5038876;28;20573;-82
2021/07/03 07:30:05;;;;;;;1.57;0.90;;;25.10;82.50;;;;;;5030041;28;20896;-82
2021/07/03 07:32:32;;;;;;;1.50;0.90;;;25.10;82.50;;;;;;5049974;28;20481;-80
2021/07/03 07:35:01;;;;;;;1.50;0.90;;;25.10;82.90;;;;;;5033011;28;20466;-82
2021/07/03 07:37:29;;;;;;;1.60;1.00;;;25.20;81.80;;;;;;5048490;28;20465;-84
2021/07/03 07:39:56;;;;;;;1.50;0.90;;;25.30;82.10;;;;;;5032003;28;20464;-79
2021/07/03 07:42:25;;;;;;;1.50;0.80;;;25.30;80.90;;;;;;5045145;28;20469;-81
2021/07/03 07:44:53;;;;;;;1.50;0.90;;;25.30;81.50;;;;;;5038127;28;20574;-81
2021/07/03 07:47:20;;;;;;;1.50;0.90;;;25.40;81.20;;;;;;5039908;28;20473;-83
2021/07/03 07:49:47;;;;;;;1.60;1.13;;;25.40;82.00;;;;;;5037306;28;20554;-80
2021/07/03 07:52:19;;;;;;;1.50;0.90;;;25.50;81.30;;;;;;5032960;28;20474;-87
2021/07/03 07:54:47;;;;;;;1.50;0.90;;;25.60;80.80;;;;;;5035403;28;20462;-80
2021/07/03 07:57:21;;;;;;;1.50;1.00;;;25.70;80.50;;;;;;5043743;28;20470;-82
2021/07/03 07:59:51;;;;;;;1.50;0.87;;;25.90;80.30;;;;;;5038192;28;20487;-85
2021/07/03 08:02:23;;;;;;;1.70;1.60;;;25.90;79.10;;;;;;5037156;28;20561;-87
2021/07/03 08:04:50;;;;;;;1.50;0.90;;;25.90;80.30;;;;;;5030940;28;20561;-87
2021/07/03 08:07:17;;;;;;;1.50;0.90;;;26.00;80.50;;;;;;5046298;28;20856;-84
2021/07/03 08:09:49;;;;;;;1.50;0.90;;;26.10;79.50;;;;;;5033081;28;20466;-86
2021/07/03 08:12:19;;;;;;;1.50;0.90;;;26.20;79.70;;;;;;5035031;28;20481;-86
2021/07/03 08:14:46;;;;;;;1.50;0.90;;;26.30;78.80;;;;;;5036197;28;20456;-85
2021/07/03 08:17:15;;;;;;;1.50;0.87;;;26.40;78.90;;;;;;5039953;28;20948;-83
2021/07/03 08:19:45;;;;;;;1.50;0.90;;;26.60;77.90;;;;;;5035663;28;21024;-85
2021/07/03 08:22:12;;;;;;;1.50;0.83;;;26.80;77.70;;;;;;5038702;28;20533;-84
2021/07/03 08:24:39;;;;;;;1.50;0.83;;;26.80;78.10;;;;;;5037222;28;20692;-82
2021/07/03 08:27:06;;;;;;;1.50;0.90;;;26.90;76.90;;;;;;5024415;28;20577;-84
2021/07/03 08:29:33;;;;;;;1.50;0.87;;;27.00;77.10;;;;;;5029192;28;20542;-81
2021/07/03 08:32:00;;;;;;;1.50;0.80;;;27.10;76.30;;;;;;5040553;28;20501;-86
2021/07/03 08:34:28;;;;;;;1.50;0.80;;;27.30;77.10;;;;;;5047291;28;20547;-84
2021/07/03 08:36:55;;;;;;;1.50;0.80;;;27.40;76.50;;;;;;5040810;28;20550;-84
2021/07/03 08:39:22;;;;;;;1.50;0.83;;;27.60;75.60;;;;;;5044770;28;20557;-81
2021/07/03 08:41:50;;;;;;;1.50;0.80;;;27.70;75.70;;;;;;5037930;28;20484;-83
2021/07/03 08:44:17;;;;;;;1.50;0.80;;;27.90;75.60;;;;;;5045026;28;20486;-80
2021/07/03 08:46:45;;;;;;;1.50;0.90;;;28.00;74.60;;;;;;5033920;28;20575;-85
2021/07/03 08:49:13;;;;;;;1.47;0.80;;;28.00;74.30;;;;;;5046724;28;20463;-83
2021/07/03 08:51:43;;;;;;;1.50;0.80;;;28.20;74.70;;;;;;5028477;28;20523;-85
2021/07/03 08:54:10;;;;;;;1.50;0.90;;;28.30;74.40;;;;;;5044169;28;20458;-82
2021/07/03 08:56:37;;;;;;;1.50;0.80;;;28.40;73.30;;;;;;5033611;28;20509;-84
2021/07/03 08:59:15;;;;;;;1.50;0.80;;;28.50;73.50;;;;;;5044958;28;20470;-79
2021/07/03 09:01:53;;;;;;;1.60;1.23;;;28.60;73.60;;;;;;5033840;28;20492;-82
2021/07/03 09:04:32;;;;;;;1.70;1.07;;;28.70;72.50;;;;;;5046706;28;21005;-80
2021/07/03 09:07:10;;;;;;;1.50;0.80;;;28.70;72.40;;;;;;5034577;28;20580;-84
2021/07/03 09:09:40;;;;;;;1.70;1.00;;;28.80;72.70;;;;;;5045571;28;20462;-82
2021/07/03 09:12:08;;;;;;;1.50;0.90;;;28.90;70.90;;;;;;5041351;28;20476;-82
2021/07/03 09:14:36;;;;;;;1.47;0.83;;;28.90;71.50;;;;;;5043360;28;20450;-78
2021/07/03 09:17:03;;;;;;;1.50;0.80;;;28.90;72.90;;;;;;5041961;28;20484;-78
2021/07/03 09:19:31;;;;;;;1.50;0.80;;;28.90;73.00;;;;;;5042831;28;20458;-77
2021/07/03 09:22:00;;;;;;;1.50;0.80;;;28.80;72.40;;;;;;5039149;28;20575;-77
2021/07/03 09:24:31;;;;;;;1.50;0.90;;;29.00;71.90;;;;;;5046595;28;20491;-80
2021/07/03 09:26:59;;;;;;;1.50;0.80;;;29.20;72.20;;;;;;5042984;28;20519;-80
2021/07/03 09:29:26;;;;;;;1.50;0.80;;;29.30;70.80;;;;;;5045277;28;20485;-78
2021/07/03 09:31:54;;;;;;;1.50;0.80;;;29.50;70.60;;;;;;5038448;28;20942;-78
2021/07/03 09:34:24;;;;;;;1.50;0.80;;;29.80;71.50;;;;;;5048409;28;20981;-79
2021/07/03 09:36:50;;;;;;;1.47;0.80;;;29.90;69.50;;;;;;5037911;28;20496;-80
2021/07/03 09:39:25;;;;;;;1.50;0.80;;;30.00;69.50;;;;;;5046768;28;20542;-79
2021/07/03 09:41:52;;;;;;;1.50;0.80;;;30.00;69.50;;;;;;5028318;28;20511;-77
2021/07/03 09:44:19;;;;;;;1.50;0.80;;;30.20;69.30;;;;;;5038404;28;20486;-77
2021/07/03 09:46:51;;;;;;;1.50;0.80;;;30.40;69.70;;;;;;5030996;28;20994;-80
2021/07/03 09:49:19;;;;;;;1.50;0.80;;;30.50;68.50;;;;;;5051430;28;20210;-81
2021/07/03 09:51:47;;;;;;;1.50;0.80;;;30.50;66.50;;;;;;5035784;28;20728;-78
2021/07/03 09:54:16;;;;;;;1.50;0.80;;;30.50;68.70;;;;;;5047630;28;20214;-80
2021/07/03 09:56:45;;;;;;;1.50;0.80;;;30.50;67.00;;;;;;5044466;28;20245;-80
2021/07/03 09:59:12;;;;;;;1.47;0.80;;;30.50;68.70;;;;;;5052300;28;20937;-78
2021/07/03 10:01:40;;;;;;;1.47;0.80;;;30.60;69.20;;;;;;5034598;28;20690;-79
2021/07/03 10:04:08;;;;;;;1.43;0.90;;;30.70;67.20;;;;;;5055716;28;20226;-80
2021/07/03 10:06:52;;;;;;;1.47;0.80;;;30.70;68.10;;;;;;5034270;28;20226;-78
2021/07/03 10:09:24;;;;;;;1.50;0.80;;;30.90;68.20;;;;;;5045174;28;20200;-81
2021/07/03 10:11:53;;;;;;;1.43;0.80;;;31.00;68.70;;;;;;5042326;28;20725;-78
2021/07/03 10:14:22;;;;;;;1.47;0.80;;;30.90;66.90;;;;;;5054417;28;20687;-79
2021/07/03 10:17:00;;;;;;;1.43;0.80;;;30.80;67.60;;;;;;5038857;28;20230;-79
2021/07/03 10:19:31;;;;;;;1.47;0.80;;;30.80;67.30;;;;;;5047479;28;20200;-79
2021/07/03 10:22:12;;;;;;;1.40;0.80;;;30.80;66.60;;;;;;5039785;28;20222;-79
2021/07/03 10:24:48;;;;;;;1.43;0.80;;;30.90;65.50;;;;;;5040485;28;20224;-81
2021/07/03 10:27:22;;;;;;;1.50;0.90;;;31.10;65.80;;;;;;5044542;28;20222;-80
2021/07/03 10:29:49;;;;;;;1.47;0.80;;;31.30;66.70;;;;;;5035988;28;20204;-80
2021/07/03 10:32:27;;;;;;;1.43;0.80;;;31.40;65.50;;;;;;5046255;28;20265;-78
2021/07/03 10:34:54;;;;;;;1.47;0.80;;;31.50;64.70;;;;;;5038929;28;20307;-79
2021/07/03 10:37:32;;;;;;;1.50;0.80;;;31.70;64.40;;;;;;5044024;28;20222;-79
2021/07/03 10:40:09;;;;;;;1.40;0.80;;;31.80;64.10;;;;;;5037587;28;20208;-80
2021/07/03 10:42:38;;;;;;;1.47;0.80;;;31.90;66.40;;;;;;5049320;28;20275;-80
2021/07/03 10:45:11;;;;;;;1.48;0.80;;;32.00;64.40;;;;;;5034028;28;20222;-79
2021/07/03 10:47:42;;;;;;;1.45;0.80;;;32.00;64.50;;;;;;5049738;28;20228;-79
2021/07/03 10:50:22;;;;;;;1.48;0.80;;;32.10;64.20;;;;;;5031569;28;20204;-79
2021/07/03 10:52:49;;;;;;;1.50;0.90;;;32.20;63.70;;;;;;5054080;28;20284;-79
2021/07/03 10:55:27;;;;;;;1.48;0.80;;;32.40;65.00;;;;;;5034449;28;20567;-79
2021/07/03 10:58:00;;;;;;;1.40;0.80;;;32.30;62.60;;;;;;5056417;28;20222;-78
2021/07/03 11:00:28;;;;;;;1.48;0.80;;;32.30;63.40;;;;;;5032953;28;20196;-79
2021/07/03 11:02:58;;;;;;;1.48;0.80;;;32.40;64.20;;;;;;5053320;28;20276;-79
2021/07/03 11:05:35;;;;;;;1.48;0.80;;;32.40;64.40;;;;;;5033405;28;20674;-81
2021/07/03 11:08:11;;;;;;;1.48;0.80;;;32.20;63.20;;;;;;5050647;28;20238;-81
2021/07/03 11:10:40;;;;;;;1.40;0.80;;;31.90;63.20;;;;;;5031048;28;20232;-80
2021/07/03 11:13:19;;;;;;;1.92;1.02;;;32.00;64.60;;;;;;5053937;28;20602;-83
2021/07/03 11:15:46;;;;;;;1.45;0.80;;;32.20;62.30;;;;;;5027199;28;20228;-81
2021/07/03 11:18:16;;;;;;;1.40;0.80;;;32.30;61.90;;;;;;5068290;28;20216;-79
2021/07/03 11:20:44;;;;;;;1.42;0.80;;;32.20;63.50;;;;;;5034229;28;20228;-78
2021/07/03 11:23:12;;;;;;;1.45;0.80;;;32.40;63.10;;;;;;5056223;28;20695;-80
2021/07/03 11:25:41;;;;;;;1.45;0.80;;;32.30;63.00;;;;;;5034413;28;20203;-77
2021/07/03 11:28:12;;;;;;;1.48;0.80;;;32.40;63.50;;;;;;5050153;28;20699;-80
2021/07/03 11:30:43;;;;;;;1.40;0.80;;;32.60;62.40;;;;;;5021646;28;20228;-79
2021/07/03 11:33:35;;;;;;;1.47;0.80;;;32.80;61.70;;;;;;5014983;28;20606;-79
2021/07/03 11:36:04;;;;;;;1.42;0.80;;;32.80;61.80;;;;;;5017647;28;20227;-79
2021/07/03 11:38:32;;;;;;;1.45;0.80;;;32.90;62.30;;;;;;5054287;28;20212;-79
2021/07/03 11:41:01;;;;;;;1.40;0.80;;;33.20;62.40;;;;;;5018221;28;20228;-79
2021/07/03 11:43:31;;;;;;;1.42;0.80;;;33.30;61.20;;;;;;5042167;28;20602;-78
2021/07/03 11:45:58;;;;;;;1.40;0.80;;;33.50;61.60;;;;;;5014685;28;20212;-78
2021/07/03 11:48:27;;;;;;;1.42;0.80;;;33.70;62.20;;;;;;5064545;22;20228;-82
2021/07/03 11:50:59;;;;;;;1.45;0.80;;;33.80;60.50;;;;;;5012457;28;20212;-83
2021/07/03 11:53:28;;;;;;;1.42;0.80;;;33.80;62.60;;;;;;5018389;28;20581;-80
2021/07/03 11:55:57;;;;;;;1.42;0.80;;;34.00;61.80;;;;;;5014188;28;20259;-78
2021/07/03 11:58:25;;;;;;;1.45;0.80;;;34.10;61.00;;;;;;5039066;28;20224;-81
2021/07/03 12:00:54;;;;;;;1.40;0.80;;;34.00;61.70;;;;;;5019047;28;20311;-82
2021/07/03 12:03:25;;;;;;;1.40;0.80;;;34.10;59.70;;;;;;5048812;28;21098;-82
2021/07/03 12:05:56;;;;;;;1.40;0.80;;;34.10;60.40;;;;;;5016751;28;20243;-83
2021/07/03 12:08:24;;;;;;;1.48;0.80;;;34.10;60.70;;;;;;5028615;28;20262;-83
2021/07/03 12:10:53;;;;;;;1.40;0.80;;;33.90;60.00;;;;;;5016220;28;20518;-84
2021/07/03 12:13:22;;;;;;;1.40;0.80;;;33.70;60.30;;;;;;5040115;28;20212;-83
2021/07/03 12:16:02;;;;;;;1.42;0.80;;;33.50;61.70;;;;;;5019309;28;20713;-85
2021/07/03 12:18:31;;;;;;;1.40;0.80;;;33.30;60.70;;;;;;5037438;28;20229;-81
2021/07/03 12:21:10;;;;;;;1.40;0.80;;;33.10;59.60;;;;;;5018276;28;20208;-82
2021/07/03 12:23:39;;;;;;;1.48;0.80;;;32.90;60.50;;;;;;5038323;28;20282;-84
2021/07/03 12:26:06;;;;;;;1.42;0.80;;;32.70;63.20;;;;;;5023655;28;20397;-84
2021/07/03 12:28:36;;;;;;;1.48;0.80;;;32.60;62.70;;;;;;5039237;28;20220;-85
2021/07/03 12:31:08;;;;;;;1.45;0.80;;;32.60;61.50;;;;;;5016628;28;20717;-84
2021/07/03 12:33:36;;;;;;;1.48;0.80;;;32.70;62.40;;;;;;5037632;28;20212;-82
2021/07/03 12:36:03;;;;;;;1.45;0.80;;;32.60;61.40;;;;;;5014070;28;20226;-82
2021/07/03 12:38:31;;;;;;;1.45;0.80;;;32.70;61.40;;;;;;5028409;28;20223;-83
2021/07/03 12:40:59;;;;;;;1.55;1.02;;;32.80;64.60;;;;;;5012735;28;20211;-83
2021/07/03 12:43:33;;;;;;;1.40;0.80;;;33.10;62.90;;;;;;5034523;28;20643;-81
2021/07/03 12:46:00;;;;;;;1.40;0.80;;;33.20;60.90;;;;;;5017912;28;20206;-83
2021/07/03 12:48:37;;;;;;;1.45;0.80;;;33.20;61.70;;;;;;5033561;28;20239;-79
2021/07/03 12:51:05;;;;;;;1.42;0.80;;;33.20;59.90;;;;;;5014358;28;20315;-82
2021/07/03 12:53:40;;;;;;;1.45;0.80;;;33.10;61.40;;;;;;5032865;28;20204;-82
2021/07/03 12:56:54;;;;;;;1.40;0.80;;;33.00;60.30;;;;;;5038055;28;20376;-82